sensor_id;sensor_type;location;lat;lon;timestamp;pressure;altitude;pressure_sealevel;temperature;humidity
73566;BME280;61846;52.970;-3.168;2023-03-20T00:01:31;100488.48;;;11.47;46.25
73566;BME280;61846;52.970;-3.168;2023-03-20T00:03:56;100477.68;;;8.98;52.18
73566;BME280;61846;52.970;-3.168;2023-03-20T00:06:22;100475.33;;;9.46;53.20
73566;BME280;61846;52.970;-3.168;2023-03-20T00:08:49;100472.23;;;11.12;49.32
73566;BME280;61846;52.970;-3.168;2023-03-20T00:11:27;100469.37;;;11.95;47.98
73566;BME280;61846;52.970;-3.168;2023-03-20T00:13:38;100469.34;;;10.18;50.17
73566;BME280;61846;52.970;-3.168;2023-03-20T00:16:05;100468.02;;;9.29;53.91
73566;BME280;61846;52.970;-3.168;2023-03-20T00:18:29;100457.53;;;10.70;49.99
73566;BME280;61846;52.970;-3.168;2023-03-20T00:20:54;100459.92;;;11.54;48.76
73566;BME280;61846;52.970;-3.168;2023-03-20T00:23:20;100460.87;;;11.94;47.67
73566;BME280;61846;52.970;-3.168;2023-03-20T00:25:46;100453.98;;;10.90;49.75
73566;BME280;61846;52.970;-3.168;2023-03-20T00:30:36;100441.22;;;11.16;48.72
73566;BME280;61846;52.970;-3.168;2023-03-20T00:33:02;100436.69;;;11.01;49.09
73566;BME280;61846;52.970;-3.168;2023-03-20T00:35:29;100430.24;;;10.73;48.97
73566;BME280;61846;52.970;-3.168;2023-03-20T00:37:54;100431.36;;;9.99;50.71
73566;BME280;61846;52.970;-3.168;2023-03-20T00:40:20;100433.75;;;10.44;49.58
73566;BME280;61846;52.970;-3.168;2023-03-20T00:42:46;100429.31;;;10.56;49.77
73566;BME280;61846;52.970;-3.168;2023-03-20T00:45:12;100428.38;;;9.95;51.42
73566;BME280;61846;52.970;-3.168;2023-03-20T00:47:37;100426.23;;;10.68;50.24
73566;BME280;61846;52.970;-3.168;2023-03-20T00:50:01;100427.25;;;11.18;48.48
73566;BME280;61846;52.970;-3.168;2023-03-20T00:52:27;100427.00;;;11.73;47.29
73566;BME280;61846;52.970;-3.168;2023-03-20T00:54:52;100429.30;;;11.56;48.45
73566;BME280;61846;52.970;-3.168;2023-03-20T00:57:22;100431.20;;;11.54;47.65
73566;BME280;61846;52.970;-3.168;2023-03-20T00:59:50;100427.28;;;12.08;46.83
73566;BME280;61846;52.970;-3.168;2023-03-20T01:02:10;100426.34;;;12.61;45.89
73566;BME280;61846;52.970;-3.168;2023-03-20T01:04:37;100431.53;;;12.42;45.79
73566;BME280;61846;52.970;-3.168;2023-03-20T01:07:00;100430.44;;;12.56;45.69
73566;BME280;61846;52.970;-3.168;2023-03-20T01:09:26;100430.02;;;12.16;45.79
73566;BME280;61846;52.970;-3.168;2023-03-20T01:11:52;100428.96;;;12.98;44.73
73566;BME280;61846;52.970;-3.168;2023-03-20T01:14:17;100431.35;;;13.16;44.01
73566;BME280;61846;52.970;-3.168;2023-03-20T01:16:43;100429.82;;;11.20;47.94
73566;BME280;61846;52.970;-3.168;2023-03-20T01:19:10;100420.20;;;12.55;45.29
73566;BME280;61846;52.970;-3.168;2023-03-20T01:21:34;100417.84;;;12.92;44.75
73566;BME280;61846;52.970;-3.168;2023-03-20T01:23:59;100414.47;;;12.86;44.56
73566;BME280;61846;52.970;-3.168;2023-03-20T01:26:31;100414.16;;;13.24;43.71
73566;BME280;61846;52.970;-3.168;2023-03-20T01:28:50;100411.41;;;13.27;43.91
73566;BME280;61846;52.970;-3.168;2023-03-20T01:31:17;100405.81;;;12.52;45.22
73566;BME280;61846;52.970;-3.168;2023-03-20T01:33:42;100403.16;;;13.05;44.39
73566;BME280;61846;52.970;-3.168;2023-03-20T01:36:09;100407.26;;;12.00;45.65
73566;BME280;61846;52.970;-3.168;2023-03-20T01:38:33;100396.69;;;12.85;44.45
73566;BME280;61846;52.970;-3.168;2023-03-20T01:41:02;100390.86;;;13.11;44.36
73566;BME280;61846;52.970;-3.168;2023-03-20T01:43:26;100390.01;;;13.62;43.43
73566;BME280;61846;52.970;-3.168;2023-03-20T01:45:56;100389.12;;;13.25;44.23
73566;BME280;61846;52.970;-3.168;2023-03-20T01:48:16;100382.25;;;12.49;45.56
73566;BME280;61846;52.970;-3.168;2023-03-20T01:50:40;100381.43;;;12.98;44.85
73566;BME280;61846;52.970;-3.168;2023-03-20T01:53:12;100376.12;;;11.36;47.62
73566;BME280;61846;52.970;-3.168;2023-03-20T01:55:32;100372.43;;;12.59;45.58
73566;BME280;61846;52.970;-3.168;2023-03-20T01:57:59;100362.31;;;12.50;46.13
73566;BME280;61846;52.970;-3.168;2023-03-20T02:00:23;100370.13;;;11.11;49.74
73566;BME280;61846;52.970;-3.168;2023-03-20T02:02:48;100366.07;;;12.06;47.28
73566;BME280;61846;52.970;-3.168;2023-03-20T02:05:16;100371.40;;;11.57;48.83
73566;BME280;61846;52.970;-3.168;2023-03-20T02:07:39;100364.00;;;12.46;47.33
73566;BME280;61846;52.970;-3.168;2023-03-20T02:10:09;100363.31;;;12.19;47.61
73566;BME280;61846;52.970;-3.168;2023-03-20T02:12:31;100353.98;;;12.79;46.83
73566;BME280;61846;52.970;-3.168;2023-03-20T02:14:56;100351.40;;;11.79;48.00
73566;BME280;61846;52.970;-3.168;2023-03-20T02:17:21;100347.71;;;12.01;47.45
73566;BME280;61846;52.970;-3.168;2023-03-20T02:19:54;100341.80;;;11.42;49.32
73566;BME280;61846;52.970;-3.168;2023-03-20T02:22:23;100352.34;;;11.36;49.79
73566;BME280;61846;52.970;-3.168;2023-03-20T02:24:53;100349.41;;;10.97;51.49
73566;BME280;61846;52.970;-3.168;2023-03-20T02:27:10;100337.27;;;9.91;55.06
73566;BME280;61846;52.970;-3.168;2023-03-20T02:29:48;100336.77;;;11.03;52.72
73566;BME280;61846;52.970;-3.168;2023-03-20T02:39:18;100331.90;;;11.65;50.30
73566;BME280;61846;52.970;-3.168;2023-03-20T02:41:39;100329.53;;;11.98;50.82
73566;BME280;61846;52.970;-3.168;2023-03-20T02:44:07;100334.91;;;12.10;50.58
73566;BME280;61846;52.970;-3.168;2023-03-20T02:46:34;100341.74;;;11.17;52.69
73566;BME280;61846;52.970;-3.168;2023-03-20T02:48:57;100334.15;;;11.40;52.44
73566;BME280;61846;52.970;-3.168;2023-03-20T02:51:21;100339.27;;;11.51;52.15
73566;BME280;61846;52.970;-3.168;2023-03-20T02:53:51;100330.70;;;11.32;53.17
73566;BME280;61846;52.970;-3.168;2023-03-20T02:56:15;100325.85;;;10.84;53.05
73566;BME280;61846;52.970;-3.168;2023-03-20T02:58:40;100324.07;;;11.02;54.63
73566;BME280;61846;52.970;-3.168;2023-03-20T03:01:07;100329.70;;;10.57;55.78
73566;BME280;61846;52.970;-3.168;2023-03-20T03:03:32;100329.19;;;10.85;54.54
73566;BME280;61846;52.970;-3.168;2023-03-20T03:05:54;100327.99;;;11.22;54.18
73566;BME280;61846;52.970;-3.168;2023-03-20T03:08:21;100326.13;;;11.54;53.12
73566;BME280;61846;52.970;-3.168;2023-03-20T03:10:45;100323.47;;;11.23;53.46
73566;BME280;61846;52.970;-3.168;2023-03-20T03:13:13;100324.52;;;11.14;53.26
73566;BME280;61846;52.970;-3.168;2023-03-20T03:15:37;100321.69;;;11.36;53.00
73566;BME280;61846;52.970;-3.168;2023-03-20T03:18:02;100322.58;;;11.54;52.07
73566;BME280;61846;52.970;-3.168;2023-03-20T03:20:29;100327.20;;;11.97;51.58
73566;BME280;61846;52.970;-3.168;2023-03-20T03:22:51;100320.04;;;12.56;50.00
73566;BME280;61846;52.970;-3.168;2023-03-20T03:25:17;100317.48;;;13.00;48.50
73566;BME280;61846;52.970;-3.168;2023-03-20T03:27:46;100315.94;;;13.40;48.41
73566;BME280;61846;52.970;-3.168;2023-03-20T03:30:12;100322.74;;;12.82;49.27
73566;BME280;61846;52.970;-3.168;2023-03-20T03:32:44;100325.83;;;12.61;49.32
73566;BME280;61846;52.970;-3.168;2023-03-20T03:35:02;100319.35;;;13.20;48.69
73566;BME280;61846;52.970;-3.168;2023-03-20T03:37:32;100316.52;;;12.46;50.44
73566;BME280;61846;52.970;-3.168;2023-03-20T03:39:53;100317.71;;;13.20;48.45
73566;BME280;61846;52.970;-3.168;2023-03-20T03:42:21;100314.38;;;13.38;47.52
73566;BME280;61846;52.970;-3.168;2023-03-20T03:44:47;100308.40;;;13.56;47.75
73566;BME280;61846;52.970;-3.168;2023-03-20T03:47:10;100306.71;;;13.58;47.17
73566;BME280;61846;52.970;-3.168;2023-03-20T03:49:35;100303.70;;;13.27;47.65
73566;BME280;61846;52.970;-3.168;2023-03-20T03:52:04;100308.13;;;13.61;47.14
73566;BME280;61846;52.970;-3.168;2023-03-20T03:54:26;100314.52;;;8.32;59.34
73566;BME280;61846;52.970;-3.168;2023-03-20T03:56:50;100310.03;;;9.03;59.58
73566;BME280;61846;52.970;-3.168;2023-03-20T03:59:19;100312.87;;;11.59;52.55
73566;BME280;61846;52.970;-3.168;2023-03-20T04:01:41;100308.46;;;12.47;50.18
73566;BME280;61846;52.970;-3.168;2023-03-20T04:04:07;100303.40;;;13.16;48.97
73566;BME280;61846;52.970;-3.168;2023-03-20T04:06:31;100306.70;;;13.29;48.31
73566;BME280;61846;52.970;-3.168;2023-03-20T04:08:57;100317.46;;;13.23;48.27
73566;BME280;61846;52.970;-3.168;2023-03-20T04:11:24;100308.82;;;13.44;48.08
73566;BME280;61846;52.970;-3.168;2023-03-20T04:13:49;100310.56;;;13.13;48.35
73566;BME280;61846;52.970;-3.168;2023-03-20T04:16:14;100308.17;;;12.40;49.74
73566;BME280;61846;52.970;-3.168;2023-03-20T04:18:39;100310.69;;;12.01;50.94
73566;BME280;61846;52.970;-3.168;2023-03-20T04:21:05;100308.19;;;12.52;50.07
73566;BME280;61846;52.970;-3.168;2023-03-20T04:23:30;100306.38;;;12.86;49.66
73566;BME280;61846;52.970;-3.168;2023-03-20T04:25:55;100306.10;;;12.92;49.79
73566;BME280;61846;52.970;-3.168;2023-03-20T04:28:21;100299.56;;;12.73;49.85
73566;BME280;61846;52.970;-3.168;2023-03-20T04:30:51;100293.14;;;12.03;51.19
73566;BME280;61846;52.970;-3.168;2023-03-20T04:33:12;100293.86;;;13.25;48.52
73566;BME280;61846;52.970;-3.168;2023-03-20T04:35:37;100297.14;;;12.06;51.21
73566;BME280;61846;52.970;-3.168;2023-03-20T04:38:03;100311.42;;;12.65;49.95
73566;BME280;61846;52.970;-3.168;2023-03-20T04:40:28;100304.68;;;11.73;52.04
73566;BME280;61846;52.970;-3.168;2023-03-20T04:42:54;100307.00;;;12.39;51.91
73566;BME280;61846;52.970;-3.168;2023-03-20T04:45:20;100302.66;;;11.74;52.95
73566;BME280;61846;52.970;-3.168;2023-03-20T04:47:45;100293.40;;;11.35;53.98
73566;BME280;61846;52.970;-3.168;2023-03-20T04:50:10;100287.49;;;10.59;55.65
73566;BME280;61846;52.970;-3.168;2023-03-20T04:52:36;100295.54;;;10.95;55.91
73566;BME280;61846;52.970;-3.168;2023-03-20T04:55:02;100287.45;;;10.70;57.01
73566;BME280;61846;52.970;-3.168;2023-03-20T04:57:27;100277.61;;;10.45;56.84
73566;BME280;61846;52.970;-3.168;2023-03-20T04:59:53;100285.00;;;10.62;56.63
73566;BME280;61846;52.970;-3.168;2023-03-20T05:02:18;100285.91;;;10.93;55.97
73566;BME280;61846;52.970;-3.168;2023-03-20T05:04:44;100291.01;;;10.05;57.34
73566;BME280;61846;52.970;-3.168;2023-03-20T05:07:09;100284.93;;;10.55;56.51
73566;BME280;61846;52.970;-3.168;2023-03-20T05:09:35;100288.46;;;10.22;58.28
73566;BME280;61846;52.970;-3.168;2023-03-20T05:12:00;100288.44;;;10.64;57.30
73566;BME280;61846;52.970;-3.168;2023-03-20T05:14:26;100291.90;;;9.79;59.27
73566;BME280;61846;52.970;-3.168;2023-03-20T05:16:51;100290.40;;;9.73;59.85
73566;BME280;61846;52.970;-3.168;2023-03-20T05:19:17;100295.21;;;10.11;59.44
73566;BME280;61846;52.970;-3.168;2023-03-20T05:21:43;100272.82;;;10.22;59.33
73566;BME280;61846;52.970;-3.168;2023-03-20T05:24:08;100286.31;;;10.43;58.37
73566;BME280;61846;52.970;-3.168;2023-03-20T05:26:34;100283.75;;;10.31;58.25
73566;BME280;61846;52.970;-3.168;2023-03-20T05:28:59;100282.59;;;9.24;60.55
73566;BME280;61846;52.970;-3.168;2023-03-20T05:31:25;100281.14;;;9.83;59.73
73566;BME280;61846;52.970;-3.168;2023-03-20T05:33:50;100280.70;;;10.31;58.93
73566;BME280;61846;52.970;-3.168;2023-03-20T05:36:16;100280.51;;;10.84;56.99
73566;BME280;61846;52.970;-3.168;2023-03-20T05:38:41;100284.41;;;11.37;54.74
73566;BME280;61846;52.970;-3.168;2023-03-20T05:41:07;100292.03;;;10.92;56.18
73566;BME280;61846;52.970;-3.168;2023-03-20T05:43:32;100297.45;;;11.14;55.77
73566;BME280;61846;52.970;-3.168;2023-03-20T05:45:58;100295.75;;;10.88;56.09
73566;BME280;61846;52.970;-3.168;2023-03-20T05:48:24;100296.37;;;11.41;54.29
73566;BME280;61846;52.970;-3.168;2023-03-20T05:50:49;100304.08;;;11.03;54.48
73566;BME280;61846;52.970;-3.168;2023-03-20T05:53:14;100301.91;;;11.79;53.68
73566;BME280;61846;52.970;-3.168;2023-03-20T05:55:40;100295.70;;;12.43;51.88
73566;BME280;61846;52.970;-3.168;2023-03-20T05:58:06;100297.49;;;12.45;52.00
73566;BME280;61846;52.970;-3.168;2023-03-20T06:00:31;100304.59;;;11.76;53.97
73566;BME280;61846;52.970;-3.168;2023-03-20T06:02:57;100307.92;;;11.78;53.52
73566;BME280;61846;52.970;-3.168;2023-03-20T06:05:22;100316.91;;;12.04;53.45
73566;BME280;61846;52.970;-3.168;2023-03-20T06:07:48;100303.26;;;11.20;55.00
73566;BME280;61846;52.970;-3.168;2023-03-20T06:10:13;100308.98;;;11.29;54.67
73566;BME280;61846;52.970;-3.168;2023-03-20T06:12:39;100309.37;;;11.83;53.99
73566;BME280;61846;52.970;-3.168;2023-03-20T06:15:05;100304.39;;;12.79;51.59
73566;BME280;61846;52.970;-3.168;2023-03-20T06:17:30;100306.41;;;13.07;50.62
73566;BME280;61846;52.970;-3.168;2023-03-20T06:19:55;100306.37;;;11.99;52.33
73566;BME280;61846;52.970;-3.168;2023-03-20T06:22:21;100304.78;;;13.36;49.68
73566;BME280;61846;52.970;-3.168;2023-03-20T06:24:46;100311.47;;;13.31;49.58
73566;BME280;61846;52.970;-3.168;2023-03-20T06:27:12;100315.08;;;12.91;50.00
73566;BME280;61846;52.970;-3.168;2023-03-20T06:29:37;100311.93;;;12.48;51.12
73566;BME280;61846;52.970;-3.168;2023-03-20T06:32:05;100309.40;;;11.53;54.10
73566;BME280;61846;52.970;-3.168;2023-03-20T06:34:28;100305.31;;;12.35;52.36
73566;BME280;61846;52.970;-3.168;2023-03-20T06:36:54;100307.60;;;11.98;53.49
73566;BME280;61846;52.970;-3.168;2023-03-20T06:39:19;100312.86;;;11.48;54.54
73566;BME280;61846;52.970;-3.168;2023-03-20T06:41:45;100302.75;;;13.04;51.51
73566;BME280;61846;52.970;-3.168;2023-03-20T06:44:10;100311.64;;;12.35;52.66
73566;BME280;61846;52.970;-3.168;2023-03-20T06:46:36;100315.90;;;12.77;51.48
73566;BME280;61846;52.970;-3.168;2023-03-20T06:49:01;100317.00;;;12.18;53.15
73566;BME280;61846;52.970;-3.168;2023-03-20T06:51:27;100314.07;;;12.11;53.68
73566;BME280;61846;52.970;-3.168;2023-03-20T06:53:52;100317.07;;;11.62;54.19
73566;BME280;61846;52.970;-3.168;2023-03-20T06:56:18;100318.90;;;12.35;52.95
73566;BME280;61846;52.970;-3.168;2023-03-20T06:58:43;100325.27;;;12.03;53.32
73566;BME280;61846;52.970;-3.168;2023-03-20T07:01:13;100318.69;;;12.18;53.27
73566;BME280;61846;52.970;-3.168;2023-03-20T07:03:34;100318.11;;;11.76;54.25
73566;BME280;61846;52.970;-3.168;2023-03-20T07:06:00;100321.00;;;11.32;55.54
73566;BME280;61846;52.970;-3.168;2023-03-20T07:08:25;100312.35;;;11.46;55.08
73566;BME280;61846;52.970;-3.168;2023-03-20T07:10:51;100303.75;;;12.53;53.06
73566;BME280;61846;52.970;-3.168;2023-03-20T07:13:16;100304.12;;;12.68;52.63
73566;BME280;61846;52.970;-3.168;2023-03-20T07:15:42;100305.93;;;12.69;52.26
73566;BME280;61846;52.970;-3.168;2023-03-20T07:18:07;100307.39;;;13.27;50.46
73566;BME280;61846;52.970;-3.168;2023-03-20T07:20:33;100312.56;;;13.01;50.88
73566;BME280;61846;52.970;-3.168;2023-03-20T07:22:58;100322.19;;;13.60;49.59
73566;BME280;61846;52.970;-3.168;2023-03-20T07:25:24;100328.04;;;12.52;51.84
73566;BME280;61846;52.970;-3.168;2023-03-20T07:27:49;100339.06;;;13.16;50.33
73566;BME280;61846;52.970;-3.168;2023-03-20T07:30:15;100340.12;;;12.30;52.54
73566;BME280;61846;52.970;-3.168;2023-03-20T07:32:40;100344.95;;;13.39;50.51
73566;BME280;61846;52.970;-3.168;2023-03-20T07:35:07;100343.51;;;12.23;52.13
73566;BME280;61846;52.970;-3.168;2023-03-20T07:37:32;100348.46;;;10.58;56.62
73566;BME280;61846;52.970;-3.168;2023-03-20T07:39:57;100336.04;;;13.20;50.25
73566;BME280;61846;52.970;-3.168;2023-03-20T07:42:22;100329.78;;;13.36;49.57
73566;BME280;61846;52.970;-3.168;2023-03-20T07:44:48;100335.11;;;10.97;54.71
73566;BME280;61846;52.970;-3.168;2023-03-20T07:47:13;100328.37;;;11.91;52.86
73566;BME280;61846;52.970;-3.168;2023-03-20T07:49:39;100328.19;;;13.06;50.78
73566;BME280;61846;52.970;-3.168;2023-03-20T07:52:05;100328.93;;;13.86;48.79
73566;BME280;61846;52.970;-3.168;2023-03-20T07:54:30;100330.97;;;14.22;48.22
73566;BME280;61846;52.970;-3.168;2023-03-20T07:56:56;100331.81;;;14.15;47.79
73566;BME280;61846;52.970;-3.168;2023-03-20T07:59:21;100334.33;;;13.77;48.44
73566;BME280;61846;52.970;-3.168;2023-03-20T08:01:47;100331.10;;;14.41;46.81
73566;BME280;61846;52.970;-3.168;2023-03-20T08:04:12;100333.37;;;14.78;46.63
73566;BME280;61846;52.970;-3.168;2023-03-20T08:06:37;100341.52;;;13.96;47.94
73566;BME280;61846;52.970;-3.168;2023-03-20T08:09:03;100341.07;;;14.46;46.34
73566;BME280;61846;52.970;-3.168;2023-03-20T08:11:28;100336.12;;;15.20;44.62
73566;BME280;61846;52.970;-3.168;2023-03-20T08:13:54;100338.55;;;15.16;45.07
73566;BME280;61846;52.970;-3.168;2023-03-20T08:16:19;100341.81;;;15.35;44.88
73566;BME280;61846;52.970;-3.168;2023-03-20T08:18:45;100345.81;;;15.18;45.17
73566;BME280;61846;52.970;-3.168;2023-03-20T08:21:10;100354.15;;;15.30;44.07
73566;BME280;61846;52.970;-3.168;2023-03-20T08:23:36;100349.76;;;14.82;45.39
73566;BME280;61846;52.970;-3.168;2023-03-20T08:26:01;100351.87;;;14.88;46.27
73566;BME280;61846;52.970;-3.168;2023-03-20T08:28:27;100350.55;;;14.55;46.47
73566;BME280;61846;52.970;-3.168;2023-03-20T08:30:52;100348.18;;;14.62;46.51
73566;BME280;61846;52.970;-3.168;2023-03-20T08:33:18;100354.10;;;14.39;47.34
73566;BME280;61846;52.970;-3.168;2023-03-20T08:38:11;100350.24;;;14.57;47.06
73566;BME280;61846;52.970;-3.168;2023-03-20T08:40:34;100346.32;;;14.92;46.02
73566;BME280;61846;52.970;-3.168;2023-03-20T08:43:00;100346.43;;;14.08;47.07
73566;BME280;61846;52.970;-3.168;2023-03-20T08:45:25;100348.18;;;14.74;46.85
73566;BME280;61846;52.970;-3.168;2023-03-20T08:47:51;100349.15;;;14.32;46.26
73566;BME280;61846;52.970;-3.168;2023-03-20T08:50:17;100358.57;;;14.14;47.89
73566;BME280;61846;52.970;-3.168;2023-03-20T08:52:42;100362.99;;;13.35;49.76
73566;BME280;61846;52.970;-3.168;2023-03-20T08:55:08;100365.84;;;13.65;49.55
73566;BME280;61846;52.970;-3.168;2023-03-20T08:57:33;100358.92;;;13.40;49.29
73566;BME280;61846;52.970;-3.168;2023-03-20T08:59:58;100354.55;;;14.14;48.91
73566;BME280;61846;52.970;-3.168;2023-03-20T09:02:24;100360.20;;;13.01;50.48
73566;BME280;61846;52.970;-3.168;2023-03-20T09:04:49;100353.84;;;14.20;47.74
73566;BME280;61846;52.970;-3.168;2023-03-20T09:07:15;100359.53;;;12.46;51.61
73566;BME280;61846;52.970;-3.168;2023-03-20T09:09:40;100356.00;;;12.86;51.44
73566;BME280;61846;52.970;-3.168;2023-03-20T09:12:06;100356.83;;;13.07;51.58
73566;BME280;61846;52.970;-3.168;2023-03-20T09:14:32;100356.68;;;13.56;50.41
73566;BME280;61846;52.970;-3.168;2023-03-20T09:16:57;100359.34;;;13.06;51.69
73566;BME280;61846;52.970;-3.168;2023-03-20T09:19:22;100357.68;;;13.52;50.14
73566;BME280;61846;52.970;-3.168;2023-03-20T09:21:47;100358.85;;;13.88;48.53
73566;BME280;61846;52.970;-3.168;2023-03-20T09:24:13;100354.47;;;13.26;49.63
73566;BME280;61846;52.970;-3.168;2023-03-20T09:26:39;100357.90;;;14.27;47.58
73566;BME280;61846;52.970;-3.168;2023-03-20T09:29:04;100357.39;;;15.24;45.94
73566;BME280;61846;52.970;-3.168;2023-03-20T09:31:29;100357.59;;;15.62;44.73
73566;BME280;61846;52.970;-3.168;2023-03-20T09:33:55;100358.90;;;16.00;43.90
73566;BME280;61846;52.970;-3.168;2023-03-20T09:36:20;100355.22;;;16.00;43.90
73566;BME280;61846;52.970;-3.168;2023-03-20T09:38:46;100356.11;;;13.95;46.77
73566;BME280;61846;52.970;-3.168;2023-03-20T09:41:17;100351.61;;;15.61;44.63
73566;BME280;61846;52.970;-3.168;2023-03-20T09:43:48;100354.92;;;15.46;43.99
73566;BME280;61846;52.970;-3.168;2023-03-20T09:46:12;100357.78;;;16.06;43.90
73566;BME280;61846;52.970;-3.168;2023-03-20T09:48:34;100353.10;;;15.82;43.90
73566;BME280;61846;52.970;-3.168;2023-03-20T09:50:57;100350.36;;;16.17;43.53
73566;BME280;61846;52.970;-3.168;2023-03-20T09:53:24;100355.16;;;15.83;42.77
73566;BME280;61846;52.970;-3.168;2023-03-20T09:55:44;100355.77;;;16.71;41.71
73566;BME280;61846;52.970;-3.168;2023-03-20T09:58:12;100360.10;;;16.41;41.65
73566;BME280;61846;52.970;-3.168;2023-03-20T10:00:36;100364.70;;;14.15;46.36
73566;BME280;61846;52.970;-3.168;2023-03-20T10:03:02;100365.32;;;16.06;43.84
73566;BME280;61846;52.970;-3.168;2023-03-20T10:05:28;100363.29;;;15.64;42.66
73566;BME280;61846;52.970;-3.168;2023-03-20T10:07:54;100372.89;;;16.55;41.35
73566;BME280;61846;52.970;-3.168;2023-03-20T10:10:17;100373.19;;;14.73;44.26
73566;BME280;61846;52.970;-3.168;2023-03-20T10:12:51;100376.35;;;13.86;45.02
73566;BME280;61846;52.970;-3.168;2023-03-20T10:15:15;100374.60;;;16.43;41.51
73566;BME280;61846;52.970;-3.168;2023-03-20T10:17:42;100376.52;;;16.90;41.21
73566;BME280;61846;52.970;-3.168;2023-03-20T10:20:03;100379.43;;;16.86;41.34
73566;BME280;61846;52.970;-3.168;2023-03-20T10:22:27;100376.69;;;17.09;40.54
73566;BME280;61846;52.970;-3.168;2023-03-20T10:24:55;100373.73;;;16.93;41.35
73566;BME280;61846;52.970;-3.168;2023-03-20T10:27:20;100379.35;;;15.20;44.38
73566;BME280;61846;52.970;-3.168;2023-03-20T10:29:48;100376.50;;;15.25;43.09
73566;BME280;61846;52.970;-3.168;2023-03-20T10:32:10;100374.02;;;15.14;45.13
73566;BME280;61846;52.970;-3.168;2023-03-20T10:34:45;100376.04;;;15.80;43.31
73566;BME280;61846;52.970;-3.168;2023-03-20T10:37:07;100376.38;;;16.41;41.80
73566;BME280;61846;52.970;-3.168;2023-03-20T10:39:32;100375.31;;;16.79;41.98
73566;BME280;61846;52.970;-3.168;2023-03-20T10:41:52;100380.92;;;16.67;41.34
73566;BME280;61846;52.970;-3.168;2023-03-20T10:44:15;100379.50;;;17.43;41.04
73566;BME280;61846;52.970;-3.168;2023-03-20T10:46:41;100387.84;;;17.42;39.41
73566;BME280;61846;52.970;-3.168;2023-03-20T10:49:08;100379.36;;;17.81;39.26
73566;BME280;61846;52.970;-3.168;2023-03-20T10:51:37;100374.74;;;17.44;40.47
73566;BME280;61846;52.970;-3.168;2023-03-20T10:53:58;100374.45;;;17.42;41.66
73566;BME280;61846;52.970;-3.168;2023-03-20T10:56:26;100366.64;;;17.46;39.47
73566;BME280;61846;52.970;-3.168;2023-03-20T10:58:48;100360.09;;;18.13;37.73
73566;BME280;61846;52.970;-3.168;2023-03-20T11:01:11;100366.95;;;16.92;39.51
73566;BME280;61846;52.970;-3.168;2023-03-20T11:03:36;100369.71;;;16.41;40.24
73566;BME280;61846;52.970;-3.168;2023-03-20T11:06:04;100367.67;;;17.52;39.66
73566;BME280;61846;52.970;-3.168;2023-03-20T11:08:33;100373.16;;;17.95;39.13
73566;BME280;61846;52.970;-3.168;2023-03-20T11:10:58;100374.39;;;17.37;39.30
73566;BME280;61846;52.970;-3.168;2023-03-20T11:13:25;100373.23;;;17.15;39.14
73566;BME280;61846;52.970;-3.168;2023-03-20T11:15:43;100366.17;;;17.23;39.30
73566;BME280;61846;52.970;-3.168;2023-03-20T11:18:11;100368.43;;;17.31;39.04
73566;BME280;61846;52.970;-3.168;2023-03-20T11:20:38;100365.08;;;16.90;40.12
73566;BME280;61846;52.970;-3.168;2023-03-20T11:23:02;100362.61;;;16.74;39.87
73566;BME280;61846;52.970;-3.168;2023-03-20T11:25:29;100360.82;;;16.60;40.58
73566;BME280;61846;52.970;-3.168;2023-03-20T11:27:50;100368.99;;;16.27;41.16
73566;BME280;61846;52.970;-3.168;2023-03-20T11:30:16;100362.35;;;16.71;40.69
73566;BME280;61846;52.970;-3.168;2023-03-20T11:32:45;100359.05;;;15.17;42.35
73566;BME280;61846;52.970;-3.168;2023-03-20T11:35:17;100357.27;;;14.58;44.04
73566;BME280;61846;52.970;-3.168;2023-03-20T11:37:33;100364.94;;;14.82;44.87
73566;BME280;61846;52.970;-3.168;2023-03-20T11:39:59;100371.52;;;15.28;45.14
73566;BME280;61846;52.970;-3.168;2023-03-20T11:42:24;100366.32;;;16.00;44.59
73566;BME280;61846;52.970;-3.168;2023-03-20T11:44:57;100364.73;;;15.25;45.59
73566;BME280;61846;52.970;-3.168;2023-03-20T11:47:18;100362.27;;;16.36;42.78
73566;BME280;61846;52.970;-3.168;2023-03-20T11:49:44;100359.50;;;16.22;42.86
73566;BME280;61846;52.970;-3.168;2023-03-20T11:52:10;100360.40;;;16.72;42.10
73566;BME280;61846;52.970;-3.168;2023-03-20T11:54:30;100360.76;;;16.71;41.40
73566;BME280;61846;52.970;-3.168;2023-03-20T11:56:57;100354.67;;;17.37;40.83
73566;BME280;61846;52.970;-3.168;2023-03-20T11:59:21;100358.25;;;14.75;43.92
73566;BME280;61846;52.970;-3.168;2023-03-20T12:01:49;100354.10;;;15.43;42.79
73566;BME280;61846;52.970;-3.168;2023-03-20T12:04:15;100345.71;;;16.94;41.79
73566;BME280;61846;52.970;-3.168;2023-03-20T12:06:42;100346.36;;;16.57;42.45
73566;BME280;61846;52.970;-3.168;2023-03-20T12:09:06;100348.62;;;16.32;43.21
73566;BME280;61846;52.970;-3.168;2023-03-20T12:11:41;100350.89;;;16.77;43.38
73566;BME280;61846;52.970;-3.168;2023-03-20T12:13:55;100347.30;;;16.54;43.28
73566;BME280;61846;52.970;-3.168;2023-03-20T12:16:20;100350.81;;;15.43;44.14
73566;BME280;61846;52.970;-3.168;2023-03-20T12:18:46;100359.72;;;16.28;43.72
73566;BME280;61846;52.970;-3.168;2023-03-20T12:21:13;100354.21;;;16.70;43.41
73566;BME280;61846;52.970;-3.168;2023-03-20T12:23:37;100355.76;;;15.48;44.94
73566;BME280;61846;52.970;-3.168;2023-03-20T12:26:04;100356.39;;;16.15;44.66
73566;BME280;61846;52.970;-3.168;2023-03-20T12:28:31;100347.23;;;16.66;43.06
73566;BME280;61846;52.970;-3.168;2023-03-20T12:31:03;100345.11;;;15.93;45.19
73566;BME280;61846;52.970;-3.168;2023-03-20T12:33:23;100351.46;;;15.31;44.34
73566;BME280;61846;52.970;-3.168;2023-03-20T12:35:44;100347.79;;;15.45;43.96
73566;BME280;61846;52.970;-3.168;2023-03-20T12:38:17;100344.04;;;15.18;46.36
73566;BME280;61846;52.970;-3.168;2023-03-20T12:40:38;100346.05;;;15.57;45.59
73566;BME280;61846;52.970;-3.168;2023-03-20T12:43:03;100345.21;;;15.56;44.22